Weather at Chico Municipal Airport

Public forecast

Using degrees Fahrenheit for public forecast. Weather courtesy of forecast.io.

Current aviation weather report (METAR) for Chico Municipal Airport

Retrieved 2020/10/30 15:51 UTC (25 minutes ago):

KCIC 301551Z 00000KT 25SM SCT250 09/00 A3010

Closest aviation forecast (TAF) to Chico Municipal Airport

Closest forecast is Red Bluff Municipal Airport, 28.0 nm (51.8 km) NW. Retrieved 2020/10/30 12:24 UTC (4 hours ago):

TAF KRBL 301120Z 3012/3112 33005KT P6SM SKC FM302300 17005KT P6SM SKC FM310600 32004KT P6SM SKC